Ride Results

Mudgee (17-05-2014)
Ride distance: 80.0 km

Outcomes - Mudgee (17-05-2014)
Division No. of Entries Retired / DNE Completed Withdrawn Ineligible V/O Percentage Completed
HW 16 - 11 - - 5 68.75%
MW 22 - 17 - - 5 77.27%
LW 15 - 15 - - - 100.00%
JN 3 - 2 - - 1 66.67%
Totals 56 - 45 - - 11 80.36%
Results - Mudgee (17-05-2014)
No. Rider Horse Place Time Leg Speeds Total
Km/Hr
H/R bpm
Heavyweight
251 Scott Davenport Alhambra Pierrot 1 (BC) 4:37:00 18.6, 16.2 17.33 39, 40 (Avg:39)
253 Jack Johnson Sharahd Chemoss 2 6:10:00 13.4, 12.4 12.97 34, 37, 40 (Avg:38)
263 Roy Barsby Rafyke 3 6:23:00 12.3, 12.6 12.53 40, 46, 52 (Avg:49)
264 Jason Duff Imparja Ice 4 7:30:00 11.2, 10.1 10.67 42, 46, 56 (Avg:51)
250 Haydn Fisher Raymar Aden 5 8:08:00 10.4, 9.3 9.84 34, 42, 42 (Avg:42)
259 Tony Warren Warren Park Kiara 5 8:08:00 10.5, 9.2 9.84 34, 46, 50 (Avg:48)
260 Sue Warren Lilonda Sharjah 5 8:08:00 10.4, 9.2 9.84 38, 46, 59 (Avg:52)
261 Janette Nelson Hampton Park Jack 8 8:14:00 10.0, 9.3 9.72 38, 40, 46 (Avg:43)
258 Paddy Smith Akifa Farras Shamah 9 8:16:00 10.3, 9.0 9.68 43, 50, 58 (Avg:54)
252 Keith Sumpner Fonda 10 8:32:00 10.2, 8.6 9.38 34, 45, 54 (Avg:49)
262 Allan Caslick A'Landell Charlie 11 8:33:00 10.0, 8.7 9.36 42, 40, 46 (Avg:43)
254 Charles Gauci Charlieville Jack Lame L1 0:00:00 18.8 - 42 (Avg:42)
207 Dean Hodkinson Wybalena Lodge Prince Harry Heart Rate L1 0:00:00 10.0 - 60 (Avg:60)
257 Brad Jones Ginmara Romansaar Lame L1 0:00:00 10.3 - 53 (Avg:53)
256 Greg Moore Parkview Armageddon Lame L1 0:00:00 18.8 - 46 (Avg:46)
255 Mitchell Ravallion Dahman Nile Star Lame L1 0:00:00 14.7 - 38 (Avg:38)
Middleweight
40 Allison Knihinicki Velona Amadi 1 (BC) 4:48:00 16.4, 16.9 16.67 44, 52 (Avg:48)
51 Karen Anderson Malleegrove Samsara 2 4:48:30 18.8, 14.8 16.64 44, 50 (Avg:47)
49 Brett Willis Jamil Razah Gazelle 3 4:55:00 17.6, 15.0 16.27 53, 52 (Avg:52)
60 Jennifer Gilbertson Windaroo Devina Glamour 4 5:33:00 13.1, 15.9 14.41 36, 45, 50 (Avg:47)
48 Ruth Van der Wegen Aloha Ameer 4 5:33:00 13.7, 15.1 14.41 38, 44 (Avg:41)
46 Chris Noonan Bridle Track Tiara 6 5:58:00 13.4, 13.3 13.41 37, 44, 54 (Avg:49)
53 Codey Bergsma Dumaresq Desert Sky 7 6:23:00 12.3, 12.6 12.53 34, 36, 46 (Avg:41)
56 Deanna Trevena Dumaresq Party Girl 7 6:23:00 12.3, 12.6 12.53 34, 44, 54 (Avg:49)
47 Carol Major Saradon 9 6:54:00 12.8, 10.5 11.59 32, 44, 54 (Avg:49)
58 Jo Davis Thee Omar 10 7:25:00 11.9, 9.8 10.79 40, 50, 57 (Avg:53)
61 Sonia Bonham Box Hill Bullzeye 11 7:59:00 10.3, 9.7 10.02 30, 32, 52 (Avg:42)
50 Rosemary Stocks Ropa Park Bella Shakila 12 8:00:00 11.2, 9.0 10.00 42, 44, 44 (Avg:44)
55 Gail Fisher Desert Dullers Aezure 13 8:08:00 10.4, 9.3 9.84 34, 40, 45 (Avg:42)
42 Sarah Ross New Kingston 14 8:18:00 9.1, 10.1 9.64 32, 52, 58 (Avg:55)
43 Nicole Smith Skittles 14 8:18:00 9.1, 10.1 9.64 34, 42, 44 (Avg:43)
59 Tracey Morley Antaarez 16 8:29:00 10.0, 8.8 9.43 40, 48, 59 (Avg:53)
44 Neroli Mitchell- Cooper Ramalea Homer 17 8:38:00 10.3, 8.3 9.27 39, 48, 52 (Avg:50)
52 Jennifer Caslick Sienna Kaptivating Lame L2 0:00:00 10.0, 9.4 - 38, 40, 48 (Avg:44)
54 Madeline Cotton A'Landell Glen Lame L2 0:00:00 10.0, 8.8 - 40, 46, 56 (Avg:51)
41 John Symons Forest Dale Xasperation Heart Rate L2 0:00:00 11.9, 8.4 - 36, 54, 61 (Avg:57)
45 Garry Bennett Misty Heights Romance Lame L1 0:00:00 11.9 - 34 (Avg:34)
57 Alana Ljubicic Aloha Tornado Lame L1 0:00:00 11.9 - 46 (Avg:46)
Lightweight
32 Allix Jones Nioka Park Jag 1 4:45:00 16.9, 16.7 16.84 43, 50 (Avg:46)
25 Leanne Holz Carlwood Park Frosty 2 (BC) 4:55:00 17.6, 15.0 16.27 39, 42 (Avg:40)
27 Faith Robinson Webbs Creek Cattle Baron 3 5:33:00 13.1, 15.9 14.41 44, 50 (Avg:47)
29 Ann English Makhtar 4 5:35:00 11.7, 18.4 14.33 42, 44 (Avg:43)
20 April Newman Littlebanks Woneta 5 6:32:00 12.4, 12.0 12.24 34, 42, 42 (Avg:42)
34 Kristie Wright Coolahlee Park Wahsha 6 6:38:00 10.0, 14.9 12.06 36, 42, 53 (Avg:47)
31 Monique Milton Box Hill Meziah 7 6:44:00 12.3, 11.4 11.88 42, 38, 40 (Avg:39)
30 Kate Pilley Pancho 7 6:44:00 12.3, 11.4 11.88 36, 48, 50 (Avg:49)
23 Sue Todd Shakista 9 6:54:00 12.8, 10.5 11.59 48, 48, 53 (Avg:50)
22 Linda Logan Burren-Dah Gidget 10 7:01:00 11.8, 10.9 11.40 38, 46, 49 (Avg:47)
26 Brooke Campbell Imparja Nasem CJ 11 7:30:00 11.2, 10.1 10.67 34, 42, 46 (Avg:44)
33 Wendy Jones Nioka Park Bird 12 7:53:00 10.3, 9.9 10.15 45, 46, 49 (Avg:47)
28 Shan Symons Dashanda Serene 13 8:08:00 10.4, 9.3 9.84 36, 34, 44 (Avg:39)
24 Catherine Connors Incognito 14 8:12:00 11.2, 8.6 9.76 34, 40, 52 (Avg:46)
21 Jan Wade Hillville Amigo 15 8:32:00 10.2, 8.6 9.38 36, 40, 44 (Avg:42)
Junior
11 Georgia Curry Macquarie Park Banjo 1 (BC) 5:42:00 14.7, 13.4 14.04 34, 43, 56 (Avg:49)
12 Sam Duff Box Hill Pegasus 2 7:29:00 10.3, 11.0 10.69 28, 32, 38 (Avg:35)
10 Makayla Circosta Ropa Park Bella Rastique Lame L2 0:00:00 11.2, 9.0 - 38, 42, 54 (Avg:48)